• Join FlightAware (Why Join?)
  • Login
  • US Flag 
Rudolph Flight #1: Arrived! 
10:59AM EST


 

Airport Tracker/Info


-or-


 

Live Flight TrackerFlight Track Log ✈ CSZ9576 ✈ 01-Aug-2014 ✈ ZSWX / WUX - ZGGG / CAN

Flight Track Log - Related Links

Times and Time Zones

All times are in EDT time to prevent confusion due to time zone crossing. See the CSZ9576 flight status page for this flight to view local times or setup timezone preferences in your user account.

Time Position Orientation Groundspeed Altitude Reporting Facility
EDT Latitude Longitude Course Direction KTS MPH feet Rate Location/Type
11:31AM 30.9948 119.9464 220° Southwest  Level Estimated
11:32AM 30.9233 119.8778 219° Southwest  Level Estimated
11:33AM 30.8517 119.8093 219° Southwest  Level Estimated
11:34AM 30.7801 119.7409 219° Southwest  Level Estimated
11:35AM 30.7085 119.6726 219° Southwest  Level Estimated
11:36AM 30.6368 119.6044 219° Southwest  Level Estimated
11:37AM 30.5651 119.5364 219° Southwest  Level Estimated
11:38AM 30.4933 119.4684 219° Southwest  Level Estimated
11:39AM 30.4216 119.4005 219° Southwest  Level Estimated
11:40AM 30.3497 119.3327 219° Southwest  Level Estimated
11:41AM 30.2779 119.2650 219° Southwest  Level Estimated
11:42AM 30.2060 119.1974 219° Southwest  Level Estimated
11:43AM 30.1341 119.1300 219° Southwest  Level Estimated
11:44AM 30.0621 119.0626 219° Southwest  Level Estimated
11:45AM 29.9902 118.9953 219° Southwest  Level Estimated
11:46AM 29.9181 118.9281 219° Southwest  Level Estimated
11:47AM 29.8461 118.8610 219° Southwest  Level Estimated
11:48AM 29.7740 118.7940 219° Southwest  Level Estimated
11:49AM 29.7019 118.7271 219° Southwest  Level Estimated
11:50AM 29.6297 118.6603 219° Southwest  Level Estimated
11:51AM 29.5575 118.5936 219° Southwest  Level Estimated
11:52AM 29.4853 118.5270 219° Southwest  Level Estimated
11:53AM 29.4130 118.4604 219° Southwest  Level Estimated
11:54AM 29.3408 118.3940 219° Southwest  Level Estimated
11:55AM 29.2684 118.3277 219° Southwest  Level Estimated
11:56AM 29.1961 118.2615 219° Southwest  Level Estimated
11:57AM 29.1237 118.1953 219° Southwest  Level Estimated
11:58AM 29.0513 118.1292 219° Southwest  Level Estimated
11:59AM 28.9788 118.0633 219° Southwest  Level Estimated
12:00PM 28.9063 117.9974 219° Southwest  Level Estimated
12:01PM 28.8338 117.9316 218° Southwest  Level Estimated
12:02PM 28.7613 117.8660 218° Southwest  Level Estimated
12:03PM 28.6887 117.8004 218° Southwest  Level Estimated
12:04PM 28.6161 117.7349 218° Southwest  Level Estimated
12:05PM 28.5435 117.6695 218° Southwest  Level Estimated
12:06PM 28.4708 117.6041 218° Southwest  Level Estimated
12:07PM 28.3981 117.5389 218° Southwest  Level Estimated
12:08PM 28.3253 117.4738 218° Southwest  Level Estimated
12:09PM 28.2526 117.4087 218° Southwest  Level Estimated
12:10PM 28.1798 117.3438 218° Southwest  Level Estimated
12:11PM 28.1070 117.2789 218° Southwest  Level Estimated
12:12PM 28.0341 117.2141 218° Southwest  Level Estimated
12:13PM 27.9612 117.1494 218° Southwest  Level Estimated
12:14PM 27.8883 117.0848 218° Southwest  Level Estimated
12:15PM 27.8153 117.0203 218° Southwest  Level Estimated
12:16PM 27.7424 116.9558 218° Southwest  Level Estimated
12:17PM 27.6694 116.8915 218° Southwest  Level Estimated
12:18PM 27.5963 116.8272 218° Southwest  Level Estimated
12:19PM 27.5233 116.7630 218° Southwest  Level Estimated
12:20PM 27.4501 116.6989 218° Southwest  Level Estimated
12:21PM 27.3770 116.6349 218° Southwest  Level Estimated
12:22PM 27.3039 116.5710 218° Southwest  Level Estimated
12:23PM 27.2307 116.5072 218° Southwest  Level Estimated
12:24PM 27.1575 116.4434 218° Southwest  Level Estimated
12:25PM 27.0842 116.3797 218° Southwest  Level Estimated
12:26PM 27.0110 116.3161 218° Southwest  Level Estimated
12:27PM 26.9377 116.2526 218° Southwest  Level Estimated
12:28PM 26.8643 116.1892 218° Southwest  Level Estimated
12:29PM 26.7910 116.1259 218° Southwest  Level Estimated
12:30PM 26.7176 116.0626 218° Southwest  Level Estimated
12:31PM 26.6442 115.9994 218° Southwest  Level Estimated
12:32PM 26.5707 115.9363 218° Southwest  Level Estimated
12:33PM 26.4973 115.8733 218° Southwest  Level Estimated
12:34PM 26.4238 115.8104 217° Southwest  Level Estimated
12:35PM 26.3503 115.7475 217° Southwest  Level Estimated
12:36PM 26.2767 115.6848 217° Southwest  Level Estimated
12:37PM 26.2031 115.6220 217° Southwest  Level Estimated
12:38PM 26.1295 115.5594 217° Southwest  Level Estimated
12:39PM 26.0559 115.4969 217° Southwest  Level Estimated
12:40PM 25.9822 115.4344 217° Southwest  Level Estimated
12:41PM 25.9086 115.3720 217° Southwest  Level Estimated
12:42PM 25.8348 115.3098 217° Southwest  Level Estimated
12:43PM 25.7611 115.2475 217° Southwest  Level Estimated
12:44PM 25.6873 115.1854 217° Southwest  Level Estimated
12:45PM 25.6136 115.1233 217° Southwest  Level Estimated
12:46PM 25.5397 115.0613 217° Southwest  Level Estimated
12:47PM 25.4659 114.9994 217° Southwest  Level Estimated
12:48PM 25.3920 114.9375 217° Southwest  Level Estimated
12:49PM 25.3181 114.8758 217° Southwest  Level Estimated
12:50PM 25.2442 114.8141 217° Southwest  Level Estimated
12:51PM 25.1702 114.7525 217° Southwest  Level Estimated
12:52PM 25.0963 114.6909 217° Southwest  Level Estimated
12:53PM 25.0223 114.6295 217° Southwest  Level Estimated
12:54PM 24.9483 114.5681 217° Southwest  Level Estimated
12:55PM 24.8742 114.5067 217° Southwest  Level Estimated
12:56PM 24.8001 114.4455 217° Southwest  Level Estimated
12:57PM 24.7260 114.3843 217° Southwest  Level Estimated
12:58PM 24.6519 114.3232 217° Southwest  Level Estimated
12:59PM 24.5778 114.2622 217° Southwest  Level Estimated
01:00PM 24.5036 114.2012 217° Southwest  Level Estimated
01:01PM 24.4294 114.1404 217° Southwest  Level Estimated
01:02PM 24.3552 114.0795 217° Southwest  Level Estimated
01:03PM 24.2809 114.0188 217° Southwest  Level Estimated
01:04PM 24.2067 113.9581 217° Southwest  Level Estimated
01:05PM 24.1324 113.8975 217° Southwest  Level Estimated
01:06PM 24.0581 113.8370 217° Southwest  Level Estimated
01:07PM 23.9837 113.7765 217° Southwest  Level Estimated
01:08PM 23.9094 113.7161 217° Southwest  Level Estimated
01:09PM 23.8350 113.6558 217° Southwest  Level Estimated
01:10PM 23.7606 113.5956 217° Southwest  Level Estimated
01:11PM 23.6861 113.5354 217° Southwest  Level Estimated
01:12PM 23.6117 113.4753 216° Southwest  Level Estimated
01:13PM 23.5372 113.4152 216° Southwest  Level Estimated
01:14PM 23.4627 113.3553 216° Southwest  Level Estimated
01:15PM 23.3924 113.2988 216° Southwest  Level Estimated
01:16PM 23.3924 113.2988 North  Level Estimated
01:17PM 23.3924 113.2988 North  Level Estimated
01:18PM 23.3924 113.2988 North  Level Estimated
01:19PM 23.3924 113.2988 North  Level Estimated
01:20PM 23.3924 113.2988 North  Level Estimated
01:21PM 23.3924 113.2988 North  Level Estimated
01:22PM 23.3924 113.2988 North  Level Estimated
01:23PM 23.3924 113.2988 North  Level Estimated
01:24PM 23.3924 113.2988 North  Level Estimated
01:25PM 23.3924 113.2988 North  Level Estimated
01:26PM 23.3924 113.2988 North  Level Estimated
01:27PM 23.3924 113.2988 North  Level Estimated
01:28PM 23.3924 113.2988 North  Level Estimated
01:29PM 23.3924 113.2988 North  Level Estimated
01:30PM 23.3924 113.2988 North  Level Estimated
01:31PM 23.3924 113.2988 North  Level Estimated